Time;durP1;ratioP1;P1;durP2;ratioP2;P2;SDS_P1;SDS_P2;PMS_P1;PMS_P2;Temp;Humidity;BMP_temperature;BMP_pressure;BME280_temperature;BME280_humidity;BME280_pressure;Samples;Min_cycle;Max_cycle;Signal;HPM_P1;HPM_P2
2022/02/14 00:00:15;;;;;;;4.97;4.47;;;;;;;;;;5020367;28;20034;-59
2022/02/14 00:02:41;;;;;;;9.13;5.15;;;;;;;;;;5018447;28;20519;-59
2022/02/14 00:05:07;;;;;;;6.30;5.78;;;;;;;;;;5018790;28;20375;-59
2022/02/14 00:07:33;;;;;;;9.05;4.95;;;;;;;;;;5021763;28;20046;-59
2022/02/14 00:09:59;;;;;;;4.93;4.53;;;;;;;;;;5018400;28;20133;-59
2022/02/14 00:12:24;;;;;;;8.98;4.72;;;;;;;;;;5021562;28;20052;-59
2022/02/14 00:14:50;;;;;;;5.35;4.85;;;;;;;;;;5018723;28;20362;-59
2022/02/14 00:17:15;;;;;;;12.25;5.82;;;;;;;;;;5014994;28;20047;-59
2022/02/14 00:19:41;;;;;;;5.70;5.20;;;;;;;;;;5018660;28;20100;-59
2022/02/14 00:22:06;;;;;;;8.75;6.15;;;;;;;;;;5020791;28;20434;-59
2022/02/14 00:24:31;;;;;;;4.95;4.45;;;;;;;;;;5021700;28;20354;-59
2022/02/14 00:26:57;;;;;;;7.80;5.30;;;;;;;;;;5018030;28;20029;-59
2022/02/14 00:29:23;;;;;;;7.53;6.03;;;;;;;;;;5019320;28;20035;-59
2022/02/14 00:31:48;;;;;;;5.13;4.63;;;;;;;;;;5020725;28;20037;-59
2022/02/14 00:34:15;;;;;;;5.97;5.40;;;;;;;;;;5021238;28;20045;-59
2022/02/14 00:36:41;;;;;;;6.38;5.53;;;;;;;;;;5020918;28;20038;-59
2022/02/14 00:39:07;;;;;;;4.93;4.47;;;;;;;;;;5022529;28;20045;-59
2022/02/14 00:41:32;;;;;;;6.22;4.72;;;;;;;;;;5020644;28;20103;-59
2022/02/14 00:43:58;;;;;;;5.10;4.63;;;;;;;;;;5021119;28;20710;-59
2022/02/14 00:46:23;;;;;;;6.05;5.45;;;;;;;;;;5018835;28;20065;-59
2022/02/14 00:48:49;;;;;;;10.98;6.18;;;;;;;;;;5019266;28;20439;-59
2022/02/14 00:51:14;;;;;;;5.53;5.03;;;;;;;;;;5020842;28;20217;-59
2022/02/14 00:53:39;;;;;;;5.55;4.95;;;;;;;;;;5019468;28;20037;-59
2022/02/14 00:56:05;;;;;;;8.18;5.20;;;;;;;;;;5017942;28;20117;-59
2022/02/14 00:58:30;;;;;;;5.35;4.57;;;;;;;;;;5021566;28;20564;-58
2022/02/14 01:00:56;;;;;;;9.60;5.35;;;;;;;;;;5020667;28;20041;-59
2022/02/14 01:03:21;;;;;;;5.50;5.00;;;;;;;;;;5014512;28;20037;-59
2022/02/14 01:05:46;;;;;;;6.10;5.07;;;;;;;;;;5017577;28;20101;-59
2022/02/14 01:08:12;;;;;;;5.18;4.55;;;;;;;;;;5020648;28;20036;-59
2022/02/14 01:10:38;;;;;;;6.35;5.75;;;;;;;;;;5022089;28;20038;-58
2022/02/14 01:13:03;;;;;;;6.63;5.95;;;;;;;;;;5019364;28;20045;-59
2022/02/14 01:15:29;;;;;;;6.00;5.47;;;;;;;;;;5020319;28;20026;-60
2022/02/14 01:17:55;;;;;;;9.02;5.63;;;;;;;;;;5019742;28;20056;-59
2022/02/14 01:20:20;;;;;;;5.60;5.10;;;;;;;;;;5020371;28;20543;-59
2022/02/14 01:22:46;;;;;;;5.55;5.05;;;;;;;;;;5020021;28;20037;-59
2022/02/14 01:25:11;;;;;;;4.78;4.38;;;;;;;;;;5018732;28;20534;-60
2022/02/14 01:27:37;;;;;;;4.72;4.22;;;;;;;;;;5020319;28;20042;-59
2022/02/14 01:30:05;;;;;;;5.00;4.53;;;;;;;;;;5019814;28;20030;-58
2022/02/14 01:32:31;;;;;;;4.22;3.83;;;;;;;;;;5018933;28;20029;-58
2022/02/14 01:34:56;;;;;;;6.47;4.40;;;;;;;;;;5016777;28;20431;-59
2022/02/14 01:37:22;;;;;;;4.68;4.15;;;;;;;;;;5015986;28;20049;-58
2022/02/14 01:39:48;;;;;;;4.68;4.25;;;;;;;;;;5018119;28;20120;-58
2022/02/14 01:42:14;;;;;;;4.05;3.65;;;;;;;;;;5020033;28;20034;-58
2022/02/14 01:44:43;;;;;;;3.85;3.55;;;;;;;;;;5020768;28;20033;-59
2022/02/14 01:47:14;;;;;;;3.90;3.50;;;;;;;;;;5014300;28;20037;-59
2022/02/14 01:49:40;;;;;;;;;;;;;;;;;;5016843;28;20479;-59
2022/02/14 01:52:06;;;;;;;3.78;3.38;;;;;;;;;;5014558;28;19913;-59
2022/02/14 01:54:36;;;;;;;4.75;3.95;;;;;;;;;;5019005;28;20057;-59
2022/02/14 01:57:04;;;;;;;4.95;3.83;;;;;;;;;;5019388;28;20442;-60
2022/02/14 01:59:29;;;;;;;4.13;3.75;;;;;;;;;;5017611;28;20686;-60
2022/02/14 02:01:55;;;;;;;3.97;3.63;;;;;;;;;;5017923;28;20038;-60
2022/02/14 02:04:20;;;;;;;4.15;3.75;;;;;;;;;;5016358;28;20037;-60
2022/02/14 02:06:46;;;;;;;9.50;4.45;;;;;;;;;;5021299;28;20359;-60
2022/02/14 02:09:12;;;;;;;4.40;3.97;;;;;;;;;;5020380;28;20427;-60
2022/02/14 02:14:22;;;;;;;4.05;3.75;;;;;;;;;;5019641;28;20125;-60
2022/02/14 02:16:48;;;;;;;4.70;4.30;;;;;;;;;;5016451;28;20366;-60
2022/02/14 02:19:13;;;;;;;4.32;3.95;;;;;;;;;;5017921;28;20113;-60
2022/02/14 02:21:39;;;;;;;4.00;3.63;;;;;;;;;;5017840;28;20041;-60
2022/02/14 02:24:09;;;;;;;4.60;4.18;;;;;;;;;;5019314;28;20070;-60
2022/02/14 02:26:35;;;;;;;4.82;4.13;;;;;;;;;;5017555;28;20036;-60
2022/02/14 02:29:01;;;;;;;4.47;4.07;;;;;;;;;;5022472;28;20363;-60
2022/02/14 02:31:26;;;;;;;5.78;5.13;;;;;;;;;;5020145;28;20045;-59
2022/02/14 02:33:51;;;;;;;4.85;4.45;;;;;;;;;;5020534;28;20043;-59
2022/02/14 02:36:17;;;;;;;5.97;5.43;;;;;;;;;;5017813;28;20104;-59
2022/02/14 02:38:42;;;;;;;7.38;4.85;;;;;;;;;;5019661;28;20034;-60
2022/02/14 02:41:07;;;;;;;4.32;3.92;;;;;;;;;;5018559;28;20034;-59
2022/02/14 02:43:33;;;;;;;5.50;4.90;;;;;;;;;;5020043;28;20140;-59
2022/02/14 02:45:59;;;;;;;4.57;4.18;;;;;;;;;;5019396;28;20447;-59
2022/02/14 02:48:25;;;;;;;4.13;3.78;;;;;;;;;;5018252;28;20064;-60
2022/02/14 02:51:04;;;;;;;4.78;4.38;;;;;;;;;;5019629;28;20022;-60
2022/02/14 02:53:31;;;;;;;4.68;4.28;;;;;;;;;;5020697;28;20027;-60
2022/02/14 02:55:57;;;;;;;4.88;4.40;;;;;;;;;;5022463;28;20065;-59
2022/02/14 02:58:23;;;;;;;4.30;3.90;;;;;;;;;;5020638;28;20037;-60
2022/02/14 03:00:48;;;;;;;6.80;4.78;;;;;;;;;;5021986;28;20451;-59
2022/02/14 03:03:14;;;;;;;4.25;3.85;;;;;;;;;;5018589;28;20108;-60
2022/02/14 03:05:39;;;;;;;4.07;3.70;;;;;;;;;;5021210;28;20038;-64
2022/02/14 03:08:04;;;;;;;5.88;4.07;;;;;;;;;;5020037;28;20092;-64
2022/02/14 03:10:30;;;;;;;3.97;3.67;;;;;;;;;;5021442;28;20095;-63
2022/02/14 03:12:56;;;;;;;5.15;4.65;;;;;;;;;;5021581;28;20029;-63
2022/02/14 03:15:22;;;;;;;3.65;3.35;;;;;;;;;;5018526;28;20120;-64
2022/02/14 03:17:47;;;;;;;6.75;3.97;;;;;;;;;;5020938;28;20180;-64
2022/02/14 03:20:13;;;;;;;6.57;4.65;;;;;;;;;;5021508;28;20030;-64
2022/02/14 03:22:38;;;;;;;5.55;5.00;;;;;;;;;;5017150;28;20456;-64
2022/02/14 03:25:04;;;;;;;4.65;4.25;;;;;;;;;;5021610;28;20527;-64
2022/02/14 03:27:29;;;;;;;4.18;3.80;;;;;;;;;;5024233;28;20100;-64
2022/02/14 03:29:55;;;;;;;4.70;4.30;;;;;;;;;;5022923;28;20120;-63
2022/02/14 03:32:20;;;;;;;4.95;4.50;;;;;;;;;;5022064;28;20064;-64
2022/02/14 03:34:46;;;;;;;4.57;4.18;;;;;;;;;;5017222;28;20038;-64
2022/02/14 03:37:11;;;;;;;4.70;4.30;;;;;;;;;;5022858;28;20403;-63
2022/02/14 03:39:36;;;;;;;4.22;3.83;;;;;;;;;;5021595;28;20060;-64
2022/02/14 03:42:02;;;;;;;4.28;3.88;;;;;;;;;;5021342;28;20104;-64
2022/02/14 03:44:28;;;;;;;4.72;4.32;;;;;;;;;;5023412;28;20518;-64
2022/02/14 03:46:53;;;;;;;4.72;4.25;;;;;;;;;;5021907;28;20041;-63
2022/02/14 03:49:19;;;;;;;4.60;4.13;;;;;;;;;;5019389;28;20034;-63
2022/02/14 03:51:44;;;;;;;4.72;4.32;;;;;;;;;;5021108;28;20099;-63
2022/02/14 03:54:10;;;;;;;5.03;4.63;;;;;;;;;;5020432;28;20672;-64
2022/02/14 03:56:36;;;;;;;5.00;4.50;;;;;;;;;;5022000;28;20076;-63
2022/02/14 03:59:01;;;;;;;4.03;3.72;;;;;;;;;;5018572;28;20045;-63
2022/02/14 04:01:27;;;;;;;4.75;4.35;;;;;;;;;;5022968;28;20037;-65
2022/02/14 04:03:52;;;;;;;4.50;4.10;;;;;;;;;;5016449;28;20029;-64
2022/02/14 04:06:18;;;;;;;4.80;4.35;;;;;;;;;;5017520;28;20421;-64
2022/02/14 04:08:43;;;;;;;4.53;4.13;;;;;;;;;;5021678;28;20044;-64
2022/02/14 04:11:09;;;;;;;4.32;3.92;;;;;;;;;;5021198;28;20041;-64
2022/02/14 04:13:34;;;;;;;4.90;4.50;;;;;;;;;;5020435;28;20037;-65
2022/02/14 04:15:59;;;;;;;4.82;4.43;;;;;;;;;;5020774;28;20050;-65
2022/02/14 04:18:25;;;;;;;5.03;4.50;;;;;;;;;;5020514;28;20045;-65
2022/02/14 04:20:51;;;;;;;4.63;4.22;;;;;;;;;;5019556;28;20060;-65
2022/02/14 04:23:16;;;;;;;5.22;4.70;;;;;;;;;;5022627;28;20426;-65
2022/02/14 04:25:42;;;;;;;4.30;3.90;;;;;;;;;;5019667;28;20026;-65
2022/02/14 04:28:07;;;;;;;4.43;4.03;;;;;;;;;;5021127;28;20440;-65
2022/02/14 04:30:33;;;;;;;5.35;4.85;;;;;;;;;;5020326;28;20029;-65
2022/02/14 04:32:59;;;;;;;4.82;4.43;;;;;;;;;;5020546;28;20041;-65
2022/02/14 04:35:27;;;;;;;4.40;4.00;;;;;;;;;;5020322;28;20487;-65
2022/02/14 04:37:54;;;;;;;5.13;4.63;;;;;;;;;;5022726;28;20110;-65
2022/02/14 04:40:20;;;;;;;4.63;4.22;;;;;;;;;;5021154;28;20374;-65
2022/02/14 04:42:45;;;;;;;5.32;4.88;;;;;;;;;;5020132;28;20192;-65
2022/02/14 04:45:10;;;;;;;3.83;3.53;;;;;;;;;;5018760;28;20030;-65
2022/02/14 04:47:36;;;;;;;5.30;4.80;;;;;;;;;;5020618;28;20112;-65
2022/02/14 04:50:02;;;;;;;6.50;4.68;;;;;;;;;;5019997;28;20099;-65
2022/02/14 04:52:27;;;;;;;5.20;4.80;;;;;;;;;;5019510;28;20044;-65
2022/02/14 04:54:53;;;;;;;4.72;4.32;;;;;;;;;;5018397;28;20029;-65
2022/02/14 04:57:18;;;;;;;4.47;4.07;;;;;;;;;;5019885;28;20052;-65
2022/02/14 04:59:44;;;;;;;4.30;3.90;;;;;;;;;;5023316;28;20125;-65
2022/02/14 05:02:09;;;;;;;4.35;4.00;;;;;;;;;;5018671;28;20033;-65
2022/02/14 05:04:35;;;;;;;4.13;3.72;;;;;;;;;;5017703;28;20037;-65
2022/02/14 05:07:00;;;;;;;4.68;4.28;;;;;;;;;;5019473;28;20371;-65
2022/02/14 05:09:25;;;;;;;4.20;3.80;;;;;;;;;;5020919;28;20172;-65
2022/02/14 05:11:52;;;;;;;4.80;4.30;;;;;;;;;;5018271;28;20482;-65
2022/02/14 05:14:18;;;;;;;6.22;4.13;;;;;;;;;;5017680;28;20033;-64
2022/02/14 05:16:43;;;;;;;4.55;4.15;;;;;;;;;;5016972;28;20030;-65
2022/02/14 05:19:09;;;;;;;4.47;3.97;;;;;;;;;;5018987;28;20129;-65
2022/02/14 05:21:34;;;;;;;5.32;4.68;;;;;;;;;;5019929;28;20037;-65
2022/02/14 05:24:00;;;;;;;4.38;3.80;;;;;;;;;;5018558;28;20531;-65
2022/02/14 05:26:27;;;;;;;16.10;4.15;;;;;;;;;;5021339;28;20043;-65
2022/02/14 05:28:55;;;;;;;4.05;3.75;;;;;;;;;;5020110;28;20121;-64
2022/02/14 05:31:23;;;;;;;4.55;4.15;;;;;;;;;;5017384;28;20033;-64
2022/02/14 05:33:49;;;;;;;4.40;4.00;;;;;;;;;;5004838;28;20041;-63
2022/02/14 05:36:18;;;;;;;5.38;4.55;;;;;;;;;;5019008;28;20037;-63
2022/02/14 05:38:43;;;;;;;4.47;4.07;;;;;;;;;;5019280;28;20056;-64
2022/02/14 05:41:08;;;;;;;7.45;4.57;;;;;;;;;;5017823;28;20367;-64
2022/02/14 05:43:34;;;;;;;6.57;4.85;;;;;;;;;;5020158;28;20061;-64
2022/02/14 05:45:59;;;;;;;4.97;4.57;;;;;;;;;;5017364;28;20363;-64
2022/02/14 05:48:26;;;;;;;4.75;3.97;;;;;;;;;;5019289;28;20057;-63
2022/02/14 05:50:52;;;;;;;4.00;3.67;;;;;;;;;;5020951;28;20021;-64
2022/02/14 05:53:18;;;;;;;4.30;3.83;;;;;;;;;;5017855;28;20116;-64
2022/02/14 05:55:43;;;;;;;4.32;3.85;;;;;;;;;;5017667;28;20523;-64
2022/02/14 05:58:09;;;;;;;4.35;3.95;;;;;;;;;;5019764;28;20048;-64
2022/02/14 06:00:34;;;;;;;4.07;3.67;;;;;;;;;;5020276;28;20095;-64
2022/02/14 06:03:00;;;;;;;4.50;4.10;;;;;;;;;;5017880;28;20086;-65
2022/02/14 06:05:25;;;;;;;5.28;4.75;;;;;;;;;;5019174;28;20049;-65
2022/02/14 06:07:51;;;;;;;4.05;3.75;;;;;;;;;;5018949;28;20105;-64
2022/02/14 06:10:16;;;;;;;4.18;3.75;;;;;;;;;;5019793;28;20408;-64
2022/02/14 06:12:42;;;;;;;4.57;4.18;;;;;;;;;;5016758;28;20042;-64
2022/02/14 06:15:07;;;;;;;4.40;4.00;;;;;;;;;;5017767;28;20071;-64
2022/02/14 06:17:34;;;;;;;3.75;3.42;;;;;;;;;;5017775;28;20489;-64
2022/02/14 06:20:00;;;;;;;4.43;4.00;;;;;;;;;;5015140;28;20045;-63
2022/02/14 06:22:25;;;;;;;4.50;4.10;;;;;;;;;;5015100;28;20030;-63
2022/02/14 06:24:51;;;;;;;4.85;4.45;;;;;;;;;;5021096;28;20168;-63
2022/02/14 06:27:16;;;;;;;6.05;3.85;;;;;;;;;;5018488;28;20038;-63
2022/02/14 06:29:41;;;;;;;4.60;3.95;;;;;;;;;;5024207;28;20206;-63
2022/02/14 06:32:07;;;;;;;4.00;3.60;;;;;;;;;;5022159;28;20113;-63
2022/02/14 06:34:32;;;;;;;5.60;4.03;;;;;;;;;;5024148;28;20069;-63
2022/02/14 06:36:57;;;;;;;4.60;4.20;;;;;;;;;;5023599;28;20026;-63
2022/02/14 06:39:23;;;;;;;5.63;3.97;;;;;;;;;;5023938;28;20594;-63
2022/02/14 06:41:49;;;;;;;7.90;4.72;;;;;;;;;;5022628;28;20033;-64
2022/02/14 06:44:14;;;;;;;4.85;4.45;;;;;;;;;;5020464;28;20037;-63
2022/02/14 06:46:40;;;;;;;4.75;4.35;;;;;;;;;;5021314;28;20458;-64
2022/02/14 06:49:06;;;;;;;4.63;4.22;;;;;;;;;;5025331;28;20040;-64
2022/02/14 06:51:35;;;;;;;4.57;3.90;;;;;;;;;;5021744;28;20042;-64
2022/02/14 06:54:01;;;;;;;4.82;4.43;;;;;;;;;;5023301;28;20033;-64
2022/02/14 06:56:26;;;;;;;4.70;4.13;;;;;;;;;;5020719;28;20038;-63
2022/02/14 06:58:52;;;;;;;3.75;3.45;;;;;;;;;;5022844;28;20036;-64
2022/02/14 07:01:17;;;;;;;4.47;4.07;;;;;;;;;;5022830;28;20037;-63
2022/02/14 07:03:42;;;;;;;5.22;4.40;;;;;;;;;;5017755;28;20044;-63
2022/02/14 07:06:08;;;;;;;3.78;3.47;;;;;;;;;;5019195;28;20356;-64
2022/02/14 07:08:34;;;;;;;5.05;4.65;;;;;;;;;;5018934;28;20049;-64
2022/02/14 07:11:00;;;;;;;4.85;4.45;;;;;;;;;;5020547;28;20045;-64
2022/02/14 07:13:26;;;;;;;26.38;4.35;;;;;;;;;;5019933;28;20080;-63
2022/02/14 07:15:52;;;;;;;4.15;3.75;;;;;;;;;;5021454;28;20352;-64
2022/02/14 07:18:18;;;;;;;5.82;4.47;;;;;;;;;;5020103;28;20045;-64
2022/02/14 07:20:43;;;;;;;4.90;4.22;;;;;;;;;;5020609;28;20091;-64
2022/02/14 07:23:09;;;;;;;4.65;4.18;;;;;;;;;;5020933;28;20613;-64
2022/02/14 07:25:35;;;;;;;4.97;4.47;;;;;;;;;;5020989;28;20112;-64
2022/02/14 07:28:01;;;;;;;5.30;4.53;;;;;;;;;;5021276;28;20644;-64
2022/02/14 07:30:27;;;;;;;4.55;3.60;;;;;;;;;;5016203;28;20038;-64
2022/02/14 07:32:52;;;;;;;4.07;3.67;;;;;;;;;;5017276;28;20052;-64
2022/02/14 07:35:18;;;;;;;6.50;5.75;;;;;;;;;;5015474;28;20808;-64
2022/02/14 07:37:44;;;;;;;4.28;3.88;;;;;;;;;;5016574;28;20522;-64
2022/02/14 07:40:11;;;;;;;4.25;3.88;;;;;;;;;;5017998;28;20037;-64
2022/02/14 07:42:36;;;;;;;4.00;3.60;;;;;;;;;;5013520;28;20034;-64
2022/02/14 07:45:03;;;;;;;4.32;3.75;;;;;;;;;;5016167;28;20208;-64
2022/02/14 07:47:28;;;;;;;7.10;4.10;;;;;;;;;;5018147;28;20033;-65
2022/02/14 07:49:54;;;;;;;4.45;4.05;;;;;;;;;;5015479;28;20355;-64
2022/02/14 07:52:19;;;;;;;4.35;3.95;;;;;;;;;;5017763;28;20086;-64
2022/02/14 07:54:45;;;;;;;5.55;5.05;;;;;;;;;;5018744;28;20048;-61
2022/02/14 07:57:10;;;;;;;21.00;5.10;;;;;;;;;;5020929;28;20112;-60
2022/02/14 07:59:36;;;;;;;4.95;4.55;;;;;;;;;;5023568;28;20033;-61
2022/02/14 08:02:01;;;;;;;4.72;4.05;;;;;;;;;;5020426;28;20025;-59
2022/02/14 08:04:27;;;;;;;4.15;3.83;;;;;;;;;;5021070;28;20366;-60
2022/02/14 08:06:52;;;;;;;4.82;4.43;;;;;;;;;;5016876;28;20038;-60
2022/02/14 08:09:18;;;;;;;5.18;4.68;;;;;;;;;;5022473;28;20041;-61
2022/02/14 08:11:44;;;;;;;5.25;4.60;;;;;;;;;;5017050;28;20387;-60
2022/02/14 08:14:10;;;;;;;4.68;4.28;;;;;;;;;;5019789;28;20340;-60
2022/02/14 08:16:35;;;;;;;5.43;4.93;;;;;;;;;;5021028;28;20092;-61
2022/02/14 08:19:01;;;;;;;4.88;4.47;;;;;;;;;;5020178;28;20045;-61
2022/02/14 08:21:27;;;;;;;5.70;5.20;;;;;;;;;;5023259;28;20087;-60
2022/02/14 08:23:53;;;;;;;4.57;4.18;;;;;;;;;;5023149;28;20117;-61
2022/02/14 08:26:18;;;;;;;5.35;4.85;;;;;;;;;;5018873;28;20116;-60
2022/02/14 08:28:45;;;;;;;8.00;4.55;;;;;;;;;;5023291;28;20064;-60
2022/02/14 08:31:10;;;;;;;4.78;4.32;;;;;;;;;;5018677;28;20470;-60
2022/02/14 08:33:36;;;;;;;5.40;4.68;;;;;;;;;;5019365;28;20037;-60
2022/02/14 08:36:01;;;;;;;4.00;3.70;;;;;;;;;;5019793;28;20360;-60
2022/02/14 08:38:27;;;;;;;4.50;4.10;;;;;;;;;;5025896;28;20405;-60
2022/02/14 08:40:52;;;;;;;5.15;4.65;;;;;;;;;;5018588;28;20037;-60
2022/02/14 08:43:17;;;;;;;5.43;5.03;;;;;;;;;;5018755;28;20042;-60
2022/02/14 08:45:43;;;;;;;5.45;4.97;;;;;;;;;;5018315;28;20116;-60
2022/02/14 08:48:08;;;;;;;5.05;4.65;;;;;;;;;;5017624;28;20043;-60
2022/02/14 08:50:34;;;;;;;6.15;4.78;;;;;;;;;;5018890;28;20059;-60
2022/02/14 08:53:02;;;;;;;5.38;4.97;;;;;;;;;;5018005;28;20025;-60
2022/02/14 08:55:28;;;;;;;4.88;4.47;;;;;;;;;;5018477;28;20478;-60
2022/02/14 08:57:54;;;;;;;4.97;4.47;;;;;;;;;;5016975;28;20029;-60
2022/02/14 09:00:20;;;;;;;5.35;4.85;;;;;;;;;;5019189;28;20111;-60
2022/02/14 09:02:45;;;;;;;5.75;5.28;;;;;;;;;;5018103;28;20033;-60
2022/02/14 09:05:11;;;;;;;5.13;4.72;;;;;;;;;;5020007;28;20045;-60
2022/02/14 09:07:36;;;;;;;5.95;5.45;;;;;;;;;;5018017;28;20022;-60
2022/02/14 09:10:03;;;;;;;5.20;4.80;;;;;;;;;;5017858;28;20021;-60
2022/02/14 09:12:28;;;;;;;4.45;4.05;;;;;;;;;;5016953;28;20033;-61
2022/02/14 09:14:54;;;;;;;5.07;4.68;;;;;;;;;;5017068;28;20022;-60
2022/02/14 09:17:19;;;;;;;4.65;4.25;;;;;;;;;;5014746;28;20052;-60
2022/02/14 09:19:45;;;;;;;5.70;4.63;;;;;;;;;;5016666;28;20100;-60
2022/02/14 09:22:10;;;;;;;5.00;4.60;;;;;;;;;;5018080;28;20026;-60
2022/02/14 09:24:36;;;;;;;6.43;5.88;;;;;;;;;;5015729;28;20033;-61
2022/02/14 09:27:03;;;;;;;6.32;5.72;;;;;;;;;;5018324;28;20041;-60
2022/02/14 09:29:30;;;;;;;6.03;5.45;;;;;;;;;;5016627;28;20045;-60
2022/02/14 09:31:56;;;;;;;5.35;4.85;;;;;;;;;;5015578;28;20131;-60
2022/02/14 09:34:22;;;;;;;5.00;4.57;;;;;;;;;;5016466;28;20033;-60
2022/02/14 09:36:47;;;;;;;6.07;5.00;;;;;;;;;;5016347;28;20517;-58
2022/02/14 09:39:13;;;;;;;4.90;4.50;;;;;;;;;;5019995;28;20545;-61
2022/02/14 09:41:39;;;;;;;4.63;4.22;;;;;;;;;;5016579;28;20068;-60
2022/02/14 09:44:06;;;;;;;4.93;4.53;;;;;;;;;;5016724;28;20053;-61
2022/02/14 09:46:35;;;;;;;5.80;5.30;;;;;;;;;;5016323;28;20156;-60
2022/02/14 09:49:02;;;;;;;5.50;5.00;;;;;;;;;;5017042;28;20041;-60
2022/02/14 09:51:29;;;;;;;6.38;5.78;;;;;;;;;;5017012;28;20102;-60
2022/02/14 09:53:54;;;;;;;5.72;5.28;;;;;;;;;;5014402;28;20127;-61
2022/02/14 09:56:22;;;;;;;5.32;4.80;;;;;;;;;;5019300;28;20506;-60
2022/02/14 09:58:48;;;;;;;4.93;4.53;;;;;;;;;;5018461;28;20169;-60
2022/02/14 10:01:14;;;;;;;4.95;4.47;;;;;;;;;;5015543;28;20498;-60
2022/02/14 10:03:58;;;;;;;6.20;5.60;;;;;;;;;;5017173;28;20029;-58
2022/02/14 10:06:37;;;;;;;6.03;5.53;;;;;;;;;;5015684;28;20026;-58
2022/02/14 10:09:10;;;;;;;6.07;5.57;;;;;;;;;;5017224;28;20076;-61
2022/02/14 10:11:39;;;;;;;5.88;5.38;;;;;;;;;;5016615;28;20032;-61
2022/02/14 10:14:19;;;;;;;6.07;5.45;;;;;;;;;;5015465;28;20034;-61
2022/02/14 10:17:22;;;;;;;4.93;4.53;;;;;;;;;;5012613;28;20515;-59
2022/02/14 10:19:55;;;;;;;4.72;4.32;;;;;;;;;;4989319;28;20129;-59
2022/02/14 10:22:21;;;;;;;5.18;4.78;;;;;;;;;;5014882;28;20490;-61
2022/02/14 10:24:46;;;;;;;5.22;4.82;;;;;;;;;;5016545;28;20041;-61
2022/02/14 10:27:13;;;;;;;5.53;5.03;;;;;;;;;;5016586;28;20034;-61
2022/02/14 10:29:41;;;;;;;5.93;5.43;;;;;;;;;;5016831;28;20030;-58
2022/02/14 10:32:07;;;;;;;4.43;4.07;;;;;;;;;;5014759;28;20447;-61
2022/02/14 10:34:41;;;;;;;5.95;5.45;;;;;;;;;;5017073;28;20065;-61
2022/02/14 10:37:09;;;;;;;5.40;4.93;;;;;;;;;;5016796;28;20033;-61
2022/02/14 10:39:35;;;;;;;8.05;5.22;;;;;;;;;;5015511;28;20053;-61
2022/02/14 10:42:07;;;;;;;6.03;5.53;;;;;;;;;;5015255;28;20679;-59
2022/02/14 10:47:35;;;;;;;6.00;5.50;;;;;;;;;;5017927;28;20091;-61
2022/02/14 10:50:08;;;;;;;4.85;4.45;;;;;;;;;;5015066;28;20042;-60
2022/02/14 10:52:52;;;;;;;6.05;5.53;;;;;;;;;;5014810;28;20380;-60
2022/02/14 10:55:19;;;;;;;4.88;4.47;;;;;;;;;;5015838;28;20125;-60
2022/02/14 10:57:47;;;;;;;5.25;4.85;;;;;;;;;;5015699;28;20424;-60
2022/02/14 11:00:15;;;;;;;5.22;4.75;;;;;;;;;;5018258;28;20092;-60
2022/02/14 11:02:43;;;;;;;5.10;4.70;;;;;;;;;;5014617;28;20030;-60
2022/02/14 11:05:10;;;;;;;5.35;4.95;;;;;;;;;;5014225;28;20030;-61
2022/02/14 11:07:37;;;;;;;5.47;5.07;;;;;;;;;;5013755;28;20067;-61
2022/02/14 11:10:06;;;;;;;5.03;4.63;;;;;;;;;;5014584;28;20069;-62
2022/02/14 11:12:35;;;;;;;5.20;4.75;;;;;;;;;;5016002;28;20037;-61
2022/02/14 11:15:04;;;;;;;6.15;5.60;;;;;;;;;;5016390;28;20037;-60
2022/02/14 11:17:31;;;;;;;5.35;4.95;;;;;;;;;;5018266;28;20621;-60
2022/02/14 11:20:05;;;;;;;4.63;4.22;;;;;;;;;;5019566;28;20030;-61
2022/02/14 11:22:40;;;;;;;6.07;5.57;;;;;;;;;;5019480;28;20099;-61
2022/02/14 11:25:08;;;;;;;5.43;5.03;;;;;;;;;;5019632;28;20041;-61
2022/02/14 11:27:38;;;;;;;4.72;4.30;;;;;;;;;;5017601;28;20095;-60
2022/02/14 11:30:09;;;;;;;5.25;4.85;;;;;;;;;;5021757;28;20037;-60
2022/02/14 11:32:39;;;;;;;5.10;4.70;;;;;;;;;;5019088;28;20043;-61
2022/02/14 11:35:19;;;;;;;6.70;5.18;;;;;;;;;;5019512;28;20030;-60
2022/02/14 11:37:59;;;;;;;6.10;5.50;;;;;;;;;;5019366;28;20029;-61
2022/02/14 11:40:40;;;;;;;18.92;8.55;;;;;;;;;;5020574;28;20574;-61
2022/02/14 11:43:19;;;;;;;10.30;6.63;;;;;;;;;;5018929;28;20522;-61
2022/02/14 11:46:10;;;;;;;5.55;5.15;;;;;;;;;;5020718;28;20439;-61
2022/02/14 11:48:36;;;;;;;;;;;;;;;;;;5017298;28;20029;-59
2022/02/14 11:51:14;;;;;;;5.22;4.82;;;;;;;;;;5018767;28;19971;-61
2022/02/14 11:53:45;;;;;;;5.63;5.22;;;;;;;;;;5019056;28;20108;-61
2022/02/14 11:56:22;;;;;;;;;;;;;;;;;;5020662;28;20635;-61
2022/02/14 11:59:03;;;;;;;5.47;5.07;;;;;;;;;;5018145;28;19999;-61
2022/02/14 12:01:34;;;;;;;6.03;5.43;;;;;;;;;;5018043;28;20030;-61
2022/02/14 12:04:31;;;;;;;9.25;7.15;;;;;;;;;;5021608;28;20041;-61
2022/02/14 12:07:23;;;;;;;4.78;4.35;;;;;;;;;;5014191;28;20052;-61
2022/02/14 12:10:00;;;;;;;4.88;4.47;;;;;;;;;;5019891;28;20072;-62
2022/02/14 12:12:56;;;;;;;6.28;5.68;;;;;;;;;;5019871;28;20037;-61
2022/02/14 12:20:51;;;;;;;4.88;4.47;;;;;;;;;;5018804;28;20045;-60
2022/02/14 12:23:28;;;;;;;5.70;4.55;;;;;;;;;;5016720;28;20033;-61
2022/02/14 12:25:54;;;;;;;4.70;4.30;;;;;;;;;;5019469;28;20033;-61
2022/02/14 12:28:22;;;;;;;5.30;4.90;;;;;;;;;;5019075;28;20957;-61
2022/02/14 12:30:48;;;;;;;5.32;4.93;;;;;;;;;;5018681;28;20092;-61
2022/02/14 12:33:15;;;;;;;5.45;5.05;;;;;;;;;;5016302;28;20057;-60
2022/02/14 12:35:49;;;;;;;5.47;4.72;;;;;;;;;;5018271;28;20037;-61
2022/02/14 12:38:16;;;;;;;5.28;4.78;;;;;;;;;;5018615;28;20041;-61
2022/02/14 12:40:55;;;;;;;6.35;5.78;;;;;;;;;;5034334;28;20053;-61
2022/02/14 12:43:27;;;;;;;5.07;4.68;;;;;;;;;;5019729;28;20036;-60
2022/02/14 12:46:02;;;;;;;5.57;5.07;;;;;;;;;;5015751;28;20132;-61
2022/02/14 12:48:33;;;;;;;5.32;4.82;;;;;;;;;;5017013;28;20306;-61
2022/02/14 12:51:07;;;;;;;5.03;4.63;;;;;;;;;;5019058;28;20034;-60
2022/02/14 12:53:34;;;;;;;5.32;4.82;;;;;;;;;;5017292;28;20041;-60
2022/02/14 12:56:19;;;;;;;5.82;5.30;;;;;;;;;;5017609;28;20060;-60
2022/02/14 12:59:05;;;;;;;5.18;4.78;;;;;;;;;;5018377;28;20088;-61
2022/02/14 13:01:36;;;;;;;4.85;4.45;;;;;;;;;;5013933;28;20038;-61
2022/02/14 13:04:14;;;;;;;4.57;4.18;;;;;;;;;;5018156;28;20455;-60
2022/02/14 13:06:42;;;;;;;6.50;4.97;;;;;;;;;;5013336;28;20061;-61
2022/02/14 13:09:23;;;;;;;6.07;5.50;;;;;;;;;;5019095;28;20044;-61
2022/02/14 13:11:51;;;;;;;4.65;4.25;;;;;;;;;;5016165;28;20348;-61
2022/02/14 13:14:47;;;;;;;4.65;4.25;;;;;;;;;;5013157;28;20032;-61
2022/02/14 13:17:24;;;;;;;5.25;4.85;;;;;;;;;;5014933;28;20068;-61
2022/02/14 13:19:56;;;;;;;6.60;5.15;;;;;;;;;;5015066;28;20041;-61
2022/02/14 13:22:27;;;;;;;6.13;4.93;;;;;;;;;;5020115;28;20051;-61
2022/02/14 13:24:58;;;;;;;;;;;;;;;;;;5017426;28;20080;-61
2022/02/14 13:27:26;;;;;;;5.75;5.32;;;;;;;;;;5015217;28;19914;-61
2022/02/14 13:29:54;;;;;;;4.70;4.30;;;;;;;;;;5016661;28;20088;-61
2022/02/14 13:32:30;;;;;;;7.03;5.25;;;;;;;;;;5016050;28;20033;-61
2022/02/14 13:35:02;;;;;;;5.18;4.78;;;;;;;;;;5016463;28;20061;-62
2022/02/14 13:37:44;;;;;;;6.03;5.50;;;;;;;;;;5016893;28;20033;-61
2022/02/14 13:40:29;;;;;;;5.22;4.55;;;;;;;;;;5017404;28;20037;-61
2022/02/14 13:43:03;;;;;;;5.05;4.55;;;;;;;;;;5016924;28;20025;-61
2022/02/14 13:46:02;;;;;;;5.10;4.70;;;;;;;;;;5017116;28;20390;-61
2022/02/14 13:48:30;;;;;;;6.32;5.75;;;;;;;;;;5015757;28;20038;-61
2022/02/14 13:50:59;;;;;;;4.80;4.40;;;;;;;;;;5018361;28;20052;-61
2022/02/14 13:53:28;;;;;;;5.30;4.82;;;;;;;;;;5017104;28;20171;-61
2022/02/14 13:56:04;;;;;;;4.88;4.47;;;;;;;;;;5020765;28;20074;-61
2022/02/14 13:58:30;;;;;;;4.25;3.85;;;;;;;;;;5019211;28;20482;-60
2022/02/14 14:00:55;;;;;;;5.72;5.22;;;;;;;;;;5017355;28;20022;-61
2022/02/14 14:03:26;;;;;;;4.60;4.20;;;;;;;;;;5020071;28;20038;-62
2022/02/14 14:05:52;;;;;;;4.83;4.43;;;;;;;;;;5021301;28;20494;-61
2022/02/14 14:08:39;;;;;;;4.55;4.15;;;;;;;;;;5018118;28;20072;-61
2022/02/14 14:11:06;;;;;;;4.88;4.47;;;;;;;;;;5017940;28;20041;-61
2022/02/14 14:13:42;;;;;;;4.85;3.70;;;;;;;;;;5018916;28;20040;-61
2022/02/14 14:16:09;;;;;;;5.40;4.57;;;;;;;;;;5027302;28;20030;-61
2022/02/14 14:18:35;;;;;;;4.60;4.20;;;;;;;;;;5018737;28;20043;-62
2022/02/14 14:21:07;;;;;;;4.78;4.32;;;;;;;;;;5018056;28;20034;-61
2022/02/14 14:23:34;;;;;;;4.03;3.63;;;;;;;;;;5020759;28;20030;-62
2022/02/14 14:26:00;;;;;;;4.35;3.95;;;;;;;;;;5017542;28;20044;-61
2022/02/14 14:28:25;;;;;;;4.10;3.70;;;;;;;;;;5017906;28;20038;-61
2022/02/14 14:30:50;;;;;;;3.95;3.65;;;;;;;;;;5019386;28;20026;-62
2022/02/14 14:33:16;;;;;;;4.95;4.45;;;;;;;;;;5019063;28;20460;-61
2022/02/14 14:35:41;;;;;;;3.95;3.65;;;;;;;;;;5018247;28;20119;-61
2022/02/14 14:38:07;;;;;;;4.50;4.05;;;;;;;;;;5018713;28;20096;-61
2022/02/14 14:40:33;;;;;;;4.55;4.07;;;;;;;;;;5021555;28;20620;-61
2022/02/14 14:42:58;;;;;;;4.18;3.78;;;;;;;;;;5017652;28;20486;-61
2022/02/14 14:45:25;;;;;;;4.68;4.28;;;;;;;;;;5018063;28;20108;-62
2022/02/14 14:47:51;;;;;;;3.88;3.58;;;;;;;;;;5012240;28;20040;-62
2022/02/14 14:50:16;;;;;;;4.45;4.05;;;;;;;;;;5016530;28;20355;-61
2022/02/14 14:52:42;;;;;;;3.78;3.47;;;;;;;;;;5021776;28;20041;-61
2022/02/14 14:55:07;;;;;;;10.05;4.20;;;;;;;;;;5021774;28;20253;-61
2022/02/14 14:57:32;;;;;;;3.95;3.65;;;;;;;;;;5006627;28;20537;-62